createdAt,value
2022-07-31T00:00:13.240Z,3.20
2022-07-31T00:02:39.743Z,3.47
2022-07-31T00:05:06.468Z,3.13
2022-07-31T00:07:32.929Z,3.07
2022-07-31T00:09:59.429Z,3.20
2022-07-31T00:12:25.944Z,3.00
2022-07-31T00:14:52.479Z,2.77
2022-07-31T00:17:18.951Z,2.80
2022-07-31T00:19:45.462Z,2.67
2022-07-31T00:22:12.637Z,3.23
2022-07-31T00:24:39.311Z,3.10
2022-07-31T00:27:06.173Z,3.13
2022-07-31T00:29:32.980Z,2.87
2022-07-31T00:31:59.548Z,3.40
2022-07-31T00:34:26.064Z,3.33
2022-07-31T00:36:52.520Z,3.40
2022-07-31T00:39:18.985Z,5.47
2022-07-31T00:41:46.006Z,4.63
2022-07-31T00:44:13.098Z,4.17
2022-07-31T00:46:40.582Z,5.47
2022-07-31T00:49:10.285Z,4.37
2022-07-31T00:51:38.373Z,5.73
2022-07-31T00:54:05.440Z,4.80
2022-07-31T00:56:31.948Z,5.27
2022-07-31T00:58:58.443Z,5.80
2022-07-31T01:01:25.050Z,6.80
2022-07-31T01:03:51.801Z,7.90
2022-07-31T01:06:18.360Z,7.97
2022-07-31T01:08:44.915Z,8.47
2022-07-31T01:11:14.036Z,9.27
2022-07-31T01:13:54.601Z,9.20
2022-07-31T01:16:22.072Z,8.80
2022-07-31T01:18:49.266Z,10.97
2022-07-31T01:21:22.125Z,10.00
2022-07-31T01:24:02.773Z,10.40
2022-07-31T01:26:29.226Z,11.03
2022-07-31T01:29:10.651Z,11.27
2022-07-31T01:31:40.762Z,11.43
2022-07-31T01:34:25.775Z,10.83
2022-07-31T01:36:57.182Z,11.23
2022-07-31T01:39:23.868Z,10.87
2022-07-31T01:41:51.245Z,11.70
2022-07-31T01:44:18.364Z,11.07
2022-07-31T01:46:46.777Z,11.20
2022-07-31T01:49:13.529Z,11.30
2022-07-31T01:51:41.741Z,10.00
2022-07-31T01:54:08.912Z,11.03
2022-07-31T01:56:35.769Z,10.57
2022-07-31T01:59:02.533Z,11.70
2022-07-31T02:01:29.383Z,9.27
2022-07-31T02:03:56.904Z,9.20
2022-07-31T02:06:27.364Z,8.83
2022-07-31T02:08:54.622Z,8.63
2022-07-31T02:11:21.548Z,8.70
2022-07-31T02:13:48.986Z,8.30
2022-07-31T02:16:16.832Z,8.70
2022-07-31T02:18:43.491Z,8.70
2022-07-31T02:21:10.333Z,9.57
2022-07-31T02:23:37.172Z,9.93
2022-07-31T02:26:07.283Z,10.07
2022-07-31T02:28:34.726Z,9.07
2022-07-31T02:31:01.671Z,10.10
2022-07-31T02:33:28.630Z,9.70
2022-07-31T02:35:55.942Z,10.53
2022-07-31T02:38:23.959Z,10.40
2022-07-31T02:40:51.368Z,10.13
2022-07-31T02:43:18.549Z,10.80
2022-07-31T02:45:45.652Z,10.93
2022-07-31T02:48:12.399Z,10.17
2022-07-31T02:50:39.608Z,10.17
2022-07-31T02:53:06.559Z,9.27
2022-07-31T02:55:33.794Z,10.47
2022-07-31T02:58:01.714Z,9.73
2022-07-31T03:00:28.336Z,10.37
2022-07-31T03:02:55.287Z,9.87
2022-07-31T03:05:21.914Z,10.10
2022-07-31T03:07:48.480Z,10.57
2022-07-31T03:10:15.034Z,9.90
2022-07-31T03:12:43.244Z,10.97
2022-07-31T03:15:11.417Z,0.17
2022-07-31T03:17:41.158Z,0.20
2022-07-31T03:20:09.089Z,0.20
2022-07-31T03:22:35.699Z,0.20
2022-07-31T03:25:03.852Z,0.20
2022-07-31T03:27:30.395Z,0.50
2022-07-31T03:29:56.856Z,0.10
2022-07-31T03:32:23.347Z,0.10
2022-07-31T03:34:49.912Z,0.10
2022-07-31T03:37:16.447Z,0.73
2022-07-31T03:39:42.910Z,0.20
2022-07-31T03:42:18.498Z,0.10
2022-07-31T03:44:46.603Z,0.20
2022-07-31T03:47:13.191Z,0.20
2022-07-31T03:49:43.265Z,0.20
2022-07-31T03:52:12.291Z,0.20
2022-07-31T03:54:39.508Z,0.10
2022-07-31T03:57:07.984Z,0.20
2022-07-31T03:59:39.880Z,0.20
2022-07-31T04:02:11.547Z,0.20
2022-07-31T04:04:38.667Z,0.20
2022-07-31T04:07:05.579Z,0.10
2022-07-31T04:09:32.283Z,0.10
2022-07-31T04:11:58.774Z,0.10
2022-07-31T04:14:25.281Z,0.20
2022-07-31T04:16:51.781Z,0.17
2022-07-31T04:19:18.274Z,0.53
2022-07-31T04:21:44.774Z,0.20
2022-07-31T04:24:30.468Z,0.20
2022-07-31T04:26:57.478Z,0.20
2022-07-31T04:29:24.579Z,0.13
2022-07-31T04:31:51.050Z,0.13
2022-07-31T04:34:17.525Z,0.20
2022-07-31T04:36:44.027Z,0.20
2022-07-31T04:39:10.620Z,0.20
2022-07-31T04:41:37.199Z,0.20
2022-07-31T04:44:03.724Z,0.20
2022-07-31T04:46:30.203Z,0.20
2022-07-31T04:48:57.041Z,0.10
2022-07-31T04:51:24.441Z,0.10
2022-07-31T04:53:51.351Z,0.10
2022-07-31T04:56:33.804Z,0.30
2022-07-31T04:59:01.106Z,0.10
2022-07-31T05:01:27.680Z,0.17
2022-07-31T05:03:54.228Z,0.20
2022-07-31T05:06:20.783Z,0.10
2022-07-31T05:08:47.323Z,0.20
2022-07-31T05:11:22.916Z,0.10
2022-07-31T05:13:50.391Z,0.20
2022-07-31T05:16:17.597Z,0.20
2022-07-31T05:18:45.423Z,0.20
2022-07-31T05:21:12.442Z,0.10
2022-07-31T05:23:42.899Z,0.40
2022-07-31T05:26:10.359Z,0.20
2022-07-31T05:28:37.627Z,0.20
2022-07-31T05:31:04.705Z,0.20
2022-07-31T05:33:31.320Z,0.17
2022-07-31T05:35:58.437Z,0.20
2022-07-31T05:38:25.413Z,0.20
2022-07-31T05:40:52.227Z,0.20
2022-07-31T05:43:18.804Z,0.10
2022-07-31T05:45:47.094Z,0.20
2022-07-31T05:48:14.212Z,0.10
2022-07-31T05:50:44.225Z,0.20
2022-07-31T05:53:17.298Z,0.10
2022-07-31T05:55:44.596Z,0.20
2022-07-31T05:58:16.165Z,0.50
2022-07-31T06:00:44.156Z,0.10
2022-07-31T06:03:12.593Z,0.20
2022-07-31T06:05:39.989Z,0.10
2022-07-31T06:08:06.775Z,0.10
2022-07-31T06:10:35.644Z,0.10
2022-07-31T06:13:02.234Z,0.10
2022-07-31T06:15:32.033Z,0.10
2022-07-31T06:18:01.028Z,3.95
2022-07-31T06:20:27.891Z,3.63
2022-07-31T06:22:54.364Z,3.85
2022-07-31T06:25:20.923Z,3.85
2022-07-31T06:27:52.052Z,3.88
2022-07-31T06:30:25.736Z,3.95
2022-07-31T06:32:52.292Z,3.47
2022-07-31T06:35:18.794Z,4.35
2022-07-31T06:37:45.332Z,3.13
2022-07-31T06:40:12.251Z,3.60
2022-07-31T06:42:38.800Z,3.45
2022-07-31T06:45:05.648Z,3.67
2022-07-31T06:47:32.133Z,3.85
2022-07-31T06:49:58.637Z,4.40
2022-07-31T06:52:25.258Z,3.78
2022-07-31T06:54:51.931Z,3.58
2022-07-31T06:57:18.474Z,3.22
2022-07-31T06:59:45.006Z,3.60
2022-07-31T07:02:11.549Z,3.53
2022-07-31T07:05:06.290Z,3.53
2022-07-31T07:07:24.532Z,3.22
2022-07-31T07:09:58.171Z,3.45
2022-07-31T07:12:24.883Z,3.70
2022-07-31T07:14:53.288Z,3.55
2022-07-31T07:17:19.795Z,4.00
2022-07-31T07:19:46.369Z,3.33
2022-07-31T07:22:30.101Z,3.58
2022-07-31T07:24:58.869Z,3.33
2022-07-31T07:27:25.837Z,3.72
2022-07-31T07:29:52.332Z,3.35
2022-07-31T07:32:18.778Z,3.55
2022-07-31T07:34:45.253Z,4.10
2022-07-31T07:37:19.747Z,3.89
2022-07-31T07:39:46.277Z,3.92
2022-07-31T07:42:12.785Z,3.92
2022-07-31T07:44:39.415Z,3.55
2022-07-31T07:47:05.914Z,3.40
2022-07-31T07:49:32.447Z,3.63
2022-07-31T07:52:00.426Z,2.85
2022-07-31T07:54:27.318Z,3.40
2022-07-31T07:56:55.018Z,3.83
2022-07-31T07:59:21.693Z,3.92
2022-07-31T08:01:48.192Z,3.80
2022-07-31T08:04:14.673Z,2.95
2022-07-31T08:06:41.181Z,4.90
2022-07-31T08:09:07.821Z,4.00
2022-07-31T08:11:34.377Z,5.05
2022-07-31T08:14:00.848Z,5.00
2022-07-31T08:16:27.362Z,5.35
2022-07-31T08:18:54.874Z,5.38
2022-07-31T08:21:21.877Z,5.43
2022-07-31T08:23:48.392Z,5.90
2022-07-31T08:26:14.909Z,5.22
2022-07-31T08:28:41.611Z,5.80
2022-07-31T08:31:16.700Z,5.53
2022-07-31T08:33:43.218Z,5.78
2022-07-31T08:36:09.706Z,5.07
2022-07-31T08:38:36.990Z,6.50
2022-07-31T08:41:03.548Z,5.50
2022-07-31T08:44:03.175Z,5.93
2022-07-31T08:46:17.440Z,6.72
2022-07-31T08:48:43.979Z,5.95
2022-07-31T08:51:13.824Z,6.55
2022-07-31T08:53:42.451Z,6.57
2022-07-31T08:56:09.231Z,6.45
2022-07-31T08:58:39.333Z,5.78
2022-07-31T09:01:07.388Z,6.90
2022-07-31T09:03:35.296Z,7.28
2022-07-31T09:06:01.776Z,7.15
2022-07-31T09:08:31.357Z,6.95
2022-07-31T09:11:07.838Z,7.20
2022-07-31T09:13:37.706Z,7.70
2022-07-31T09:16:04.637Z,7.05
2022-07-31T09:18:31.108Z,7.32
2022-07-31T09:20:58.721Z,7.55
2022-07-31T09:23:26.605Z,7.32
2022-07-31T09:26:01.039Z,7.30
2022-07-31T09:28:37.388Z,7.53
2022-07-31T09:31:04.567Z,6.75
2022-07-31T09:33:31.692Z,6.93
2022-07-31T09:35:58.510Z,7.05
2022-07-31T09:38:36.190Z,8.38
2022-07-31T09:41:53.649Z,7.18
2022-07-31T09:43:57.188Z,7.22
2022-07-31T09:46:23.765Z,8.13
2022-07-31T09:48:51.491Z,6.65
2022-07-31T09:51:23.236Z,7.63
2022-07-31T09:53:53.627Z,7.22
2022-07-31T09:56:30.209Z,7.07
2022-07-31T09:58:56.831Z,6.53
2022-07-31T10:01:24.011Z,6.93
2022-07-31T10:03:51.393Z,7.78
2022-07-31T10:06:19.567Z,6.97
2022-07-31T10:08:46.406Z,7.55
2022-07-31T10:11:19.306Z,7.60
2022-07-31T10:13:48.212Z,7.85
2022-07-31T10:16:15.307Z,7.47
2022-07-31T10:18:44.585Z,6.82
2022-07-31T10:21:11.553Z,6.20
2022-07-31T10:23:41.929Z,6.55
2022-07-31T10:26:08.545Z,6.25
2022-07-31T10:28:37.431Z,8.23
2022-07-31T10:31:04.475Z,6.90
2022-07-31T10:33:46.476Z,7.10
2022-07-31T10:36:18.712Z,5.75
2022-07-31T10:38:54.145Z,18.48
2022-07-31T10:41:39.692Z,6.63
2022-07-31T10:44:10.712Z,6.22
2022-07-31T10:46:37.217Z,10.38
2022-07-31T10:49:08.847Z,15.43
2022-07-31T10:51:45.803Z,7.15
2022-07-31T10:54:14.195Z,5.45
2022-07-31T10:56:43.382Z,6.63
2022-07-31T10:59:10.570Z,5.57
2022-07-31T11:01:54.927Z,16.83
2022-07-31T11:04:28.874Z,6.18
2022-07-31T11:06:55.392Z,5.07
2022-07-31T11:09:25.245Z,6.45
2022-07-31T11:11:52.217Z,16.83
2022-07-31T11:14:18.785Z,8.43
2022-07-31T11:16:51.725Z,6.13
2022-07-31T11:19:18.264Z,6.90
2022-07-31T11:21:44.886Z,5.22
2022-07-31T11:24:17.675Z,9.57
2022-07-31T11:26:51.787Z,4.78
2022-07-31T11:30:00.560Z,5.15
2022-07-31T11:32:15.838Z,5.07
2022-07-31T11:34:46.587Z,6.85
2022-07-31T11:37:17.103Z,4.40
2022-07-31T11:39:51.308Z,4.75
2022-07-31T11:42:19.762Z,4.80
2022-07-31T11:44:54.618Z,4.40
2022-07-31T11:48:09.508Z,4.95
2022-07-31T11:50:08.239Z,4.70
2022-07-31T11:52:36.779Z,5.03
2022-07-31T11:55:09.287Z,5.07
2022-07-31T11:57:51.745Z,5.35
2022-07-31T12:00:26.749Z,4.88
2022-07-31T12:02:56.159Z,4.97
2022-07-31T12:05:37.675Z,4.65
2022-07-31T12:08:05.849Z,4.75
2022-07-31T12:10:32.398Z,4.78
2022-07-31T12:12:58.937Z,4.10
2022-07-31T12:15:25.431Z,4.05
2022-07-31T12:18:00.087Z,4.18
2022-07-31T12:20:35.295Z,3.97
2022-07-31T12:23:03.290Z,3.97
2022-07-31T12:25:38.912Z,3.75
2022-07-31T12:28:07.381Z,3.63
2022-07-31T12:30:33.939Z,3.85
2022-07-31T12:33:07.652Z,4.20
2022-07-31T12:35:55.617Z,4.13
2022-07-31T12:38:45.140Z,4.57
2022-07-31T12:41:13.744Z,4.30
2022-07-31T12:43:52.056Z,3.88
2022-07-31T12:46:20.099Z,4.25
2022-07-31T12:48:46.596Z,3.85
2022-07-31T12:51:13.280Z,3.95
2022-07-31T12:53:39.819Z,4.03
2022-07-31T12:56:10.992Z,4.03
2022-07-31T12:58:37.455Z,3.67
2022-07-31T13:01:03.950Z,3.50
2022-07-31T13:03:45.351Z,3.80
2022-07-31T13:06:12.820Z,3.53
2022-07-31T13:08:39.656Z,3.38
2022-07-31T13:11:06.158Z,3.42
2022-07-31T13:13:35.352Z,3.35
2022-07-31T13:16:01.829Z,3.38
2022-07-31T13:18:30.089Z,3.72
2022-07-31T13:20:56.634Z,2.97
2022-07-31T13:23:23.134Z,3.33
2022-07-31T13:25:49.723Z,3.30
2022-07-31T13:28:16.223Z,3.97
2022-07-31T13:30:42.742Z,3.78
2022-07-31T13:33:09.231Z,3.10
2022-07-31T13:35:35.731Z,3.53
2022-07-31T13:38:02.250Z,2.47
2022-07-31T13:40:48.278Z,2.72
2022-07-31T13:43:14.836Z,2.97
2022-07-31T13:45:41.617Z,3.13
2022-07-31T13:48:09.759Z,2.88
2022-07-31T13:50:37.677Z,2.75
2022-07-31T13:53:04.669Z,3.00
2022-07-31T13:55:31.254Z,3.20
2022-07-31T13:58:00.911Z,2.90
2022-07-31T14:00:28.208Z,2.92
2022-07-31T14:02:54.677Z,2.67
2022-07-31T14:05:21.465Z,3.17
2022-07-31T14:07:51.928Z,2.60
2022-07-31T14:10:20.780Z,3.20
2022-07-31T14:12:48.185Z,2.70
2022-07-31T14:15:14.802Z,3.15
2022-07-31T14:17:41.321Z,3.55
2022-07-31T14:20:08.214Z,3.47
2022-07-31T14:22:34.763Z,3.03
2022-07-31T14:25:01.353Z,3.25
2022-07-31T14:27:27.891Z,4.03
2022-07-31T14:29:54.550Z,3.45
2022-07-31T14:32:22.331Z,3.65
2022-07-31T14:34:49.388Z,3.17
2022-07-31T14:37:15.907Z,3.38
2022-07-31T14:39:43.160Z,3.30
2022-07-31T14:42:10.004Z,3.13
2022-07-31T14:44:38.296Z,3.75
2022-07-31T14:47:05.268Z,3.58
2022-07-31T14:50:07.643Z,3.72
2022-07-31T14:52:18.747Z,2.83
2022-07-31T14:54:45.330Z,3.45
2022-07-31T14:57:11.906Z,3.70
2022-07-31T14:59:38.511Z,3.33
2022-07-31T15:02:05.238Z,3.20
2022-07-31T15:04:31.750Z,3.00
2022-07-31T15:07:18.700Z,3.15
2022-07-31T15:09:44.856Z,2.80
2022-07-31T15:12:16.679Z,2.88
2022-07-31T15:14:43.830Z,2.70
2022-07-31T15:17:10.326Z,2.95
2022-07-31T15:19:36.819Z,3.10
2022-07-31T15:22:09.831Z,2.60
2022-07-31T15:24:48.566Z,2.88
2022-07-31T15:27:15.921Z,3.20
2022-07-31T15:30:03.552Z,2.80
2022-07-31T15:32:29.702Z,2.90
2022-07-31T15:34:56.211Z,2.88
2022-07-31T15:37:22.723Z,3.40
2022-07-31T15:40:02.025Z,2.85
2022-07-31T15:42:30.896Z,2.65
2022-07-31T15:44:57.357Z,2.70
2022-07-31T15:47:23.853Z,2.67
2022-07-31T15:49:50.508Z,2.67
2022-07-31T15:52:18.984Z,2.53
2022-07-31T15:54:46.000Z,2.58
2022-07-31T15:57:12.500Z,2.45
2022-07-31T15:59:38.996Z,2.78
2022-07-31T16:02:06.565Z,2.15
2022-07-31T16:04:33.085Z,2.00
2022-07-31T16:07:00.436Z,2.70
2022-07-31T16:10:04.040Z,2.33
2022-07-31T16:12:34.855Z,2.50
2022-07-31T16:15:02.555Z,2.60
2022-07-31T16:17:38.563Z,2.30
2022-07-31T16:20:09.439Z,2.65
2022-07-31T16:22:39.260Z,2.90
2022-07-31T16:25:06.485Z,2.55
2022-07-31T16:27:33.050Z,2.40
2022-07-31T16:30:02.106Z,2.58
2022-07-31T16:32:29.154Z,2.42
2022-07-31T16:35:00.184Z,2.90
2022-07-31T16:37:52.592Z,3.10
2022-07-31T16:40:26.876Z,2.53
2022-07-31T16:43:49.729Z,3.42
2022-07-31T16:45:50.940Z,2.30
2022-07-31T16:48:17.727Z,2.60
2022-07-31T16:50:44.328Z,2.75
2022-07-31T16:54:09.994Z,2.58
2022-07-31T16:56:01.299Z,2.65
2022-07-31T16:58:28.418Z,2.65
2022-07-31T17:00:54.973Z,2.67
2022-07-31T17:03:59.521Z,2.30
2022-07-31T17:06:10.448Z,2.40
2022-07-31T17:08:38.227Z,2.25
2022-07-31T17:11:04.930Z,3.03
2022-07-31T17:13:31.480Z,2.53
2022-07-31T17:15:57.960Z,2.88
2022-07-31T17:18:25.469Z,1.92
2022-07-31T17:20:52.824Z,1.80
2022-07-31T17:23:42.674Z,2.20
2022-07-31T17:26:09.426Z,2.10
2022-07-31T17:28:47.178Z,2.53
2022-07-31T17:31:13.657Z,2.30
2022-07-31T17:33:54.672Z,1.75
2022-07-31T17:36:26.604Z,2.08
2022-07-31T17:38:53.049Z,2.35
2022-07-31T17:41:25.296Z,2.28
2022-07-31T17:43:53.615Z,2.20
2022-07-31T17:46:22.036Z,2.13
2022-07-31T17:49:01.471Z,2.30
2022-07-31T17:51:28.023Z,2.20
2022-07-31T17:53:59.636Z,2.30
2022-07-31T17:56:26.691Z,2.42
2022-07-31T17:58:53.373Z,1.85
2022-07-31T18:01:19.968Z,1.90
2022-07-31T18:03:46.685Z,2.77
2022-07-31T18:06:13.176Z,2.60
2022-07-31T18:08:39.745Z,2.00
2022-07-31T18:11:06.732Z,2.20
2022-07-31T18:13:47.770Z,2.03
2022-07-31T18:16:15.015Z,2.72
2022-07-31T18:18:41.545Z,2.25
2022-07-31T18:21:08.086Z,2.08
2022-07-31T18:23:34.595Z,1.83
2022-07-31T18:26:01.243Z,2.28
2022-07-31T18:28:27.785Z,2.75
2022-07-31T18:30:54.274Z,2.67
2022-07-31T18:33:21.937Z,2.38
2022-07-31T18:35:48.534Z,2.90
2022-07-31T18:38:15.097Z,2.45
2022-07-31T18:40:41.633Z,2.58
2022-07-31T18:43:08.395Z,2.50
2022-07-31T18:45:35.046Z,2.30
2022-07-31T18:48:01.652Z,2.40
2022-07-31T18:50:58.297Z,2.42
2022-07-31T18:53:16.197Z,2.60
2022-07-31T18:55:43.514Z,2.50
2022-07-31T18:58:10.388Z,2.50
2022-07-31T19:00:36.974Z,2.40
2022-07-31T19:03:04.523Z,2.60
2022-07-31T19:05:31.776Z,2.50
2022-07-31T19:07:58.628Z,2.70
2022-07-31T19:10:29.161Z,2.92
2022-07-31T19:12:56.387Z,2.80
2022-07-31T19:15:22.922Z,2.90
2022-07-31T19:17:49.379Z,3.33
2022-07-31T19:20:56.380Z,2.60
2022-07-31T19:23:03.960Z,2.80
2022-07-31T19:26:02.662Z,2.70
2022-07-31T19:28:20.879Z,2.73
2022-07-31T19:30:53.469Z,3.47
2022-07-31T19:33:20.047Z,3.10
2022-07-31T19:35:58.547Z,3.23
2022-07-31T19:38:28.133Z,3.50
2022-07-31T19:40:54.913Z,3.67
2022-07-31T19:43:21.492Z,3.50
2022-07-31T19:46:10.632Z,3.20
2022-07-31T19:48:35.988Z,3.40
2022-07-31T19:51:02.610Z,3.10
2022-07-31T19:53:29.127Z,3.10
2022-07-31T19:55:55.642Z,3.17
2022-07-31T19:58:22.137Z,3.20
2022-07-31T20:00:48.818Z,3.40
2022-07-31T20:03:15.455Z,2.80
2022-07-31T20:05:41.985Z,3.10
2022-07-31T20:08:08.555Z,2.90
2022-07-31T20:10:35.054Z,3.13
2022-07-31T20:13:01.568Z,2.60
2022-07-31T20:15:52.672Z,2.80
2022-07-31T20:18:26.880Z,3.03
2022-07-31T20:20:56.698Z,2.87
2022-07-31T20:23:23.636Z,2.80
2022-07-31T20:25:50.119Z,2.90
2022-07-31T20:28:16.662Z,2.87
2022-07-31T20:30:43.182Z,2.90
2022-07-31T20:33:11.372Z,2.80
2022-07-31T20:35:48.702Z,2.80
2022-07-31T20:38:19.998Z,2.70
2022-07-31T20:40:53.765Z,2.83
2022-07-31T20:43:22.651Z,2.70
2022-07-31T20:45:49.233Z,2.77
2022-07-31T20:48:17.900Z,2.70
2022-07-31T20:50:48.283Z,2.77
2022-07-31T20:53:15.213Z,2.80
2022-07-31T20:55:49.262Z,2.60
2022-07-31T20:58:16.504Z,2.57
2022-07-31T21:00:43.038Z,2.87
2022-07-31T21:03:09.622Z,2.27
2022-07-31T21:05:36.104Z,2.27
2022-07-31T21:08:02.655Z,2.60
2022-07-31T21:10:29.934Z,2.60
2022-07-31T21:12:56.573Z,2.63
2022-07-31T21:15:42.868Z,2.50
2022-07-31T21:18:10.137Z,2.43
2022-07-31T21:20:51.946Z,2.00
2022-07-31T21:23:23.642Z,2.40
2022-07-31T21:25:51.080Z,2.67
2022-07-31T21:28:18.179Z,2.10
2022-07-31T21:30:44.810Z,2.33
2022-07-31T21:33:11.468Z,2.40
2022-07-31T21:35:39.937Z,2.23
2022-07-31T21:38:10.113Z,2.13
2022-07-31T21:40:38.912Z,2.30
2022-07-31T21:43:05.676Z,2.60
2022-07-31T21:45:51.096Z,2.00
2022-07-31T21:48:19.349Z,2.10
2022-07-31T21:50:46.250Z,2.77
2022-07-31T21:53:13.259Z,2.00
2022-07-31T21:55:40.102Z,2.13
2022-07-31T21:58:07.244Z,2.00
2022-07-31T22:00:36.999Z,2.00
2022-07-31T22:03:04.044Z,2.20
2022-07-31T22:05:49.516Z,2.37
2022-07-31T22:08:16.422Z,2.00
2022-07-31T22:10:43.384Z,2.23
2022-07-31T22:13:10.001Z,2.00
2022-07-31T22:15:50.361Z,2.30
2022-07-31T22:18:23.188Z,2.00
2022-07-31T22:20:53.288Z,1.83
2022-07-31T22:23:19.850Z,1.90
2022-07-31T22:25:48.386Z,2.07
2022-07-31T22:28:15.702Z,1.90
2022-07-31T22:30:42.306Z,1.63
2022-07-31T22:33:08.885Z,1.80
2022-07-31T22:35:35.403Z,2.10
2022-07-31T22:38:01.884Z,1.70
2022-07-31T22:40:28.437Z,2.23
2022-07-31T22:42:57.634Z,1.83
2022-07-31T22:45:25.113Z,1.87
2022-07-31T22:47:51.669Z,1.67
2022-07-31T22:50:18.264Z,1.40
2022-07-31T22:52:44.920Z,1.20
2022-07-31T22:55:11.722Z,1.40
2022-07-31T22:57:38.304Z,1.33
2022-07-31T23:00:07.661Z,1.57
2022-07-31T23:02:34.245Z,1.37
2022-07-31T23:05:00.699Z,1.20
2022-07-31T23:07:27.224Z,1.40
2022-07-31T23:09:53.731Z,1.27
2022-07-31T23:12:20.203Z,1.20
2022-07-31T23:14:46.728Z,1.30
2022-07-31T23:17:23.662Z,1.40
2022-07-31T23:19:54.140Z,1.63
2022-07-31T23:22:30.809Z,1.37
2022-07-31T23:25:01.091Z,1.50
2022-07-31T23:27:27.671Z,1.43
2022-07-31T23:29:54.146Z,1.33
2022-07-31T23:32:20.632Z,1.20
2022-07-31T23:34:47.125Z,1.20
2022-07-31T23:37:13.620Z,1.20
2022-07-31T23:39:40.227Z,1.63
2022-07-31T23:42:25.087Z,1.47
2022-07-31T23:44:51.635Z,1.60
2022-07-31T23:47:18.163Z,1.40
2022-07-31T23:49:44.724Z,1.30
2022-07-31T23:52:11.257Z,1.63
2022-07-31T23:54:37.786Z,1.53
2022-07-31T23:57:04.311Z,1.33
2022-07-31T23:59:30.880Z,1.37
